JBU541 KBOS-KCLE
Flight info
| Callsign | JBU541 |
|---|---|
| Flight time | 1h 46m |
| Altitude | 36000 |
| Route | HYLND7 HYLND CAM Q822 GONZZ HANKK THOME TRYBE4 |
| Aircraft | A320/M-SDE3FGHIRWY/LB1 |
Departure
| Time | 2026-05-06 22:54 |
|---|---|
| Airport | Boston Logan International Airport (KBOS) |
Arrival
| Time | 2026-05-07 00:40 |
|---|---|
| Airport | Cleveland Hopkins International Airport (KCLE) |
| Time | Latitude | Longitude | Altitude | Speed | Heading |
|---|---|---|---|---|---|
| 2026-05-06 22:18 | 42.36837 | -71.01467 | 26 ft | 0 kts | 248° |
| 2026-05-06 22:42 | 42.36840 | -71.01455 | 25 ft | 4 kts | 249° |
| 2026-05-06 22:42 | 42.36849 | -71.01421 | 26 ft | 4 kts | 250° |
| 2026-05-06 22:42 | 42.36856 | -71.01392 | 29 ft | 4 kts | 263° |
| 2026-05-06 22:43 | 42.36854 | -71.01358 | 29 ft | 4 kts | 301° |
| 2026-05-06 22:43 | 42.36845 | -71.01343 | 28 ft | 1 kts | 315° |
| 2026-05-06 22:46 | 42.36858 | -71.01360 | 25 ft | 6 kts | 314° |
| 2026-05-06 22:46 | 42.36897 | -71.01412 | 23 ft | 10 kts | 316° |
| 2026-05-06 22:47 | 42.36959 | -71.01499 | 27 ft | 13 kts | 310° |
| 2026-05-06 22:47 | 42.37027 | -71.01556 | 27 ft | 12 kts | 19° |
| 2026-05-06 22:47 | 42.37039 | -71.01481 | 28 ft | 10 kts | 133° |
| 2026-05-06 22:47 | 42.36989 | -71.01414 | 30 ft | 11 kts | 135° |
| 2026-05-06 22:48 | 42.36935 | -71.01342 | 28 ft | 11 kts | 135° |
| 2026-05-06 22:48 | 42.36885 | -71.01262 | 29 ft | 11 kts | 110° |
| 2026-05-06 22:48 | 42.36920 | -71.01185 | 30 ft | 10 kts | 41° |
| 2026-05-06 22:48 | 42.36973 | -71.01124 | 27 ft | 10 kts | 35° |
| 2026-05-06 22:49 | 42.37034 | -71.01080 | 25 ft | 10 kts | 25° |
| 2026-05-06 22:49 | 42.37096 | -71.01039 | 30 ft | 10 kts | 26° |
| 2026-05-06 22:49 | 42.37161 | -71.00996 | 26 ft | 11 kts | 26° |
| 2026-05-06 22:49 | 42.37230 | -71.00952 | 27 ft | 11 kts | 25° |
| 2026-05-06 22:50 | 42.37303 | -71.00908 | 28 ft | 12 kts | 22° |
| 2026-05-06 22:50 | 42.37380 | -71.00869 | 27 ft | 12 kts | 20° |
| 2026-05-06 22:50 | 42.37465 | -71.00827 | 27 ft | 14 kts | 20° |
| 2026-05-06 22:50 | 42.37558 | -71.00782 | 29 ft | 14 kts | 19° |
| 2026-05-06 22:51 | 42.37654 | -71.00736 | 27 ft | 15 kts | 19° |
| 2026-05-06 22:51 | 42.37753 | -71.00689 | 25 ft | 15 kts | 20° |
| 2026-05-06 22:51 | 42.37813 | -71.00659 | 28 ft | 5 kts | 20° |
| 2026-05-06 22:51 | 42.37838 | -71.00618 | 27 ft | 7 kts | 70° |
| 2026-05-06 22:52 | 42.37833 | -71.00572 | 29 ft | 5 kts | 110° |
| 2026-05-06 22:52 | 42.37818 | -71.00518 | 29 ft | 7 kts | 110° |
| 2026-05-06 22:52 | 42.37790 | -71.00473 | 27 ft | 6 kts | 184° |
| 2026-05-06 22:52 | 42.37782 | -71.00478 | 28 ft | 0 kts | 201° |
| 2026-05-06 22:53 | 42.37781 | -71.00478 | 28 ft | 0 kts | 201° |
| 2026-05-06 22:53 | 42.37750 | -71.00495 | 27 ft | 15 kts | 201° |
| 2026-05-06 22:53 | 42.37458 | -71.00635 | 28 ft | 78 kts | 199° |
| 2026-05-06 22:53 | 42.36768 | -71.00967 | 29 ft | 130 kts | 200° |
| 2026-05-06 22:54 | 42.35871 | -71.01418 | 493 ft | 135 kts | 200° |
| 2026-05-06 22:54 | 42.34952 | -71.01888 | 951 ft | 152 kts | 197° |
| 2026-05-06 22:54 | 42.33897 | -71.01726 | 1482 ft | 170 kts | 155° |
| 2026-05-06 22:54 | 42.32965 | -71.00501 | 1757 ft | 202 kts | 138° |
| 2026-05-06 22:55 | 42.32085 | -70.98947 | 2349 ft | 213 kts | 138° |
| 2026-05-06 22:55 | 42.31312 | -70.97161 | 2973 ft | 234 kts | 116° |
| 2026-05-06 22:55 | 42.31194 | -70.94857 | 3474 ft | 266 kts | 86° |
| 2026-05-06 22:55 | 42.31601 | -70.92292 | 3835 ft | 291 kts | 83° |
| 2026-05-06 22:56 | 42.32037 | -70.89560 | 4491 ft | 301 kts | 83° |
| 2026-05-06 22:56 | 42.32476 | -70.86759 | 4862 ft | 308 kts | 84° |
| 2026-05-06 22:56 | 42.32916 | -70.83909 | 4975 ft | 312 kts | 84° |
| 2026-05-06 22:56 | 42.33379 | -70.81036 | 5201 ft | 317 kts | 78° |
| 2026-05-06 22:57 | 42.34270 | -70.78270 | 6056 ft | 326 kts | 61° |
| 2026-05-06 22:57 | 42.35701 | -70.75861 | 6799 ft | 333 kts | 41° |
| 2026-05-06 22:57 | 42.37567 | -70.74095 | 7545 ft | 333 kts | 21° |
| 2026-05-06 22:57 | 42.39717 | -70.73033 | 8407 ft | 327 kts | 11° |
| 2026-05-06 22:58 | 42.41902 | -70.72225 | 9263 ft | 323 kts | 3° |
| 2026-05-06 22:58 | 42.44110 | -70.71971 | 10048 ft | 315 kts | 349° |
| 2026-05-06 22:58 | 42.46278 | -70.72316 | 10532 ft | 318 kts | 338° |
| 2026-05-06 22:58 | 42.48398 | -70.73313 | 10686 ft | 329 kts | 325° |
| 2026-05-06 22:59 | 42.50512 | -70.74732 | 10831 ft | 349 kts | 324° |
| 2026-05-06 22:59 | 42.52559 | -70.76484 | 11263 ft | 348 kts | 314° |
| 2026-05-06 22:59 | 42.54300 | -70.78718 | 11873 ft | 342 kts | 303° |
| 2026-05-06 22:59 | 42.55684 | -70.81313 | 12515 ft | 340 kts | 297° |
| 2026-05-06 23:00 | 42.56997 | -70.83990 | 13170 ft | 342 kts | 297° |
| 2026-05-06 23:00 | 42.58319 | -70.86693 | 13768 ft | 345 kts | 297° |
| 2026-05-06 23:00 | 42.59651 | -70.89426 | 14312 ft | 348 kts | 297° |
| 2026-05-06 23:00 | 42.60985 | -70.92177 | 14802 ft | 352 kts | 297° |
| 2026-05-06 23:01 | 42.62338 | -70.94970 | 15320 ft | 356 kts | 297° |
| 2026-05-06 23:01 | 42.63705 | -70.97789 | 15821 ft | 359 kts | 297° |
| 2026-05-06 23:01 | 42.65086 | -71.00636 | 16326 ft | 362 kts | 297° |
| 2026-05-06 23:01 | 42.66481 | -71.03505 | 16844 ft | 366 kts | 296° |
| 2026-05-06 23:02 | 42.67889 | -71.06399 | 17376 ft | 369 kts | 296° |
| 2026-05-06 23:02 | 42.69308 | -71.09320 | 17897 ft | 372 kts | 296° |
| 2026-05-06 23:02 | 42.70738 | -71.12269 | 18385 ft | 375 kts | 296° |
| 2026-05-06 23:02 | 42.72180 | -71.15243 | 18858 ft | 378 kts | 296° |
| 2026-05-06 23:03 | 42.73631 | -71.18243 | 19334 ft | 381 kts | 296° |
| 2026-05-06 23:03 | 42.75091 | -71.21268 | 19800 ft | 384 kts | 296° |
| 2026-05-06 23:03 | 42.76557 | -71.24319 | 20256 ft | 386 kts | 295° |
| 2026-05-06 23:03 | 42.77769 | -71.27547 | 20674 ft | 381 kts | 284° |
| 2026-05-06 23:04 | 42.78479 | -71.30940 | 21094 ft | 376 kts | 275° |
| 2026-05-06 23:04 | 42.78863 | -71.34461 | 21511 ft | 377 kts | 273° |
| 2026-05-06 23:04 | 42.79242 | -71.38009 | 21930 ft | 380 kts | 273° |
| 2026-05-06 23:04 | 42.79631 | -71.41575 | 22333 ft | 383 kts | 273° |
| 2026-05-06 23:05 | 42.80029 | -71.45171 | 22733 ft | 386 kts | 273° |
| 2026-05-06 23:05 | 42.80430 | -71.48793 | 23133 ft | 388 kts | 273° |
| 2026-05-06 23:05 | 42.80836 | -71.52440 | 23496 ft | 391 kts | 274° |
| 2026-05-06 23:05 | 42.81244 | -71.56107 | 23857 ft | 393 kts | 274° |
| 2026-05-06 23:06 | 42.81652 | -71.59785 | 24239 ft | 393 kts | 274° |
| 2026-05-06 23:06 | 42.82058 | -71.63478 | 24604 ft | 394 kts | 274° |
| 2026-05-06 23:06 | 42.82459 | -71.67168 | 24963 ft | 395 kts | 274° |
| 2026-05-06 23:06 | 42.82862 | -71.70874 | 25323 ft | 396 kts | 274° |
| 2026-05-06 23:07 | 42.83267 | -71.74599 | 25692 ft | 397 kts | 274° |
| 2026-05-06 23:07 | 42.83669 | -71.78327 | 26058 ft | 398 kts | 274° |
| 2026-05-06 23:07 | 42.84070 | -71.82067 | 26418 ft | 400 kts | 274° |
| 2026-05-06 23:07 | 42.84472 | -71.85817 | 26762 ft | 401 kts | 274° |
| 2026-05-06 23:08 | 42.84873 | -71.89573 | 27178 ft | 400 kts | 274° |
| 2026-05-06 23:08 | 42.85271 | -71.93304 | 27784 ft | 396 kts | 274° |
| 2026-05-06 23:08 | 42.85667 | -71.96993 | 28391 ft | 391 kts | 274° |
| 2026-05-06 23:08 | 42.86059 | -72.00641 | 28969 ft | 387 kts | 274° |
| 2026-05-06 23:09 | 42.86444 | -72.04256 | 29551 ft | 384 kts | 274° |
| 2026-05-06 23:09 | 42.86823 | -72.07836 | 30078 ft | 380 kts | 274° |
| 2026-05-06 23:09 | 42.87199 | -72.11388 | 30530 ft | 377 kts | 274° |
| 2026-05-06 23:09 | 42.87569 | -72.14909 | 31039 ft | 373 kts | 274° |
| 2026-05-06 23:10 | 42.87933 | -72.18394 | 31556 ft | 369 kts | 274° |
| 2026-05-06 23:10 | 42.88289 | -72.21842 | 32077 ft | 365 kts | 274° |
| 2026-05-06 23:10 | 42.88641 | -72.25256 | 32588 ft | 362 kts | 274° |
| 2026-05-06 23:10 | 42.88989 | -72.28630 | 33189 ft | 357 kts | 274° |
| 2026-05-06 23:11 | 42.89333 | -72.31957 | 33757 ft | 352 kts | 274° |
| 2026-05-06 23:11 | 42.89671 | -72.35252 | 34168 ft | 349 kts | 274° |
| 2026-05-06 23:11 | 42.90005 | -72.38516 | 34510 ft | 348 kts | 274° |
| 2026-05-06 23:11 | 42.90338 | -72.41784 | 34815 ft | 347 kts | 274° |
| 2026-05-06 23:12 | 42.90669 | -72.45040 | 35108 ft | 346 kts | 274° |
| 2026-05-06 23:12 | 42.91000 | -72.48293 | 35387 ft | 346 kts | 274° |
| 2026-05-06 23:12 | 42.91330 | -72.51544 | 35655 ft | 346 kts | 274° |
| 2026-05-06 23:13 | 42.91994 | -72.58103 | 35775 ft | 354 kts | 274° |
| 2026-05-06 23:13 | 42.92668 | -72.64832 | 35773 ft | 359 kts | 274° |
| 2026-05-06 23:14 | 42.93339 | -72.71599 | 35768 ft | 360 kts | 274° |
| 2026-05-06 23:14 | 42.94005 | -72.78366 | 35769 ft | 360 kts | 274° |
| 2026-05-06 23:15 | 42.94677 | -72.85138 | 35773 ft | 360 kts | 274° |
| 2026-05-06 23:15 | 42.95346 | -72.91866 | 35771 ft | 360 kts | 274° |
| 2026-05-06 23:16 | 42.96003 | -72.98659 | 35827 ft | 361 kts | 274° |
| 2026-05-06 23:16 | 42.96659 | -73.05462 | 35814 ft | 362 kts | 274° |
| 2026-05-06 23:17 | 42.97318 | -73.12275 | 35833 ft | 362 kts | 274° |
| 2026-05-06 23:17 | 42.97972 | -73.19099 | 35842 ft | 362 kts | 274° |
| 2026-05-06 23:18 | 42.98613 | -73.25905 | 35798 ft | 361 kts | 274° |
| 2026-05-06 23:18 | 42.99254 | -73.32696 | 35861 ft | 360 kts | 274° |
| 2026-05-06 23:19 | 42.99563 | -73.39471 | 35854 ft | 356 kts | 269° |
| 2026-05-06 23:19 | 42.99719 | -73.46227 | 35852 ft | 355 kts | 269° |
| 2026-05-06 23:20 | 42.99869 | -73.52962 | 35854 ft | 355 kts | 269° |
| 2026-05-06 23:20 | 43.00026 | -73.59690 | 35853 ft | 354 kts | 269° |
| 2026-05-06 23:21 | 43.00186 | -73.66415 | 35896 ft | 354 kts | 269° |
| 2026-05-06 23:21 | 43.00346 | -73.73123 | 35855 ft | 353 kts | 269° |
| 2026-05-06 23:22 | 43.00488 | -73.79829 | 35847 ft | 353 kts | 269° |
| 2026-05-06 23:22 | 43.00623 | -73.86541 | 35846 ft | 354 kts | 269° |
| 2026-05-06 23:23 | 43.00763 | -73.93259 | 35847 ft | 354 kts | 269° |
| 2026-05-06 23:23 | 43.00904 | -73.99980 | 35854 ft | 354 kts | 269° |
| 2026-05-06 23:24 | 43.01039 | -74.06668 | 35868 ft | 355 kts | 269° |
| 2026-05-06 23:24 | 43.01168 | -74.13408 | 35868 ft | 355 kts | 269° |
| 2026-05-06 23:25 | 43.01289 | -74.20152 | 35866 ft | 355 kts | 269° |
| 2026-05-06 23:25 | 43.01419 | -74.26887 | 35866 ft | 355 kts | 270° |
| 2026-05-06 23:26 | 43.01704 | -74.33617 | 35865 ft | 355 kts | 271° |
| 2026-05-06 23:26 | 43.02051 | -74.40354 | 35896 ft | 355 kts | 271° |
| 2026-05-06 23:27 | 43.02376 | -74.47095 | 35886 ft | 356 kts | 271° |
| 2026-05-06 23:27 | 43.02671 | -74.53841 | 35888 ft | 355 kts | 270° |
| 2026-05-06 23:28 | 43.02957 | -74.60582 | 35884 ft | 355 kts | 270° |
| 2026-05-06 23:28 | 43.03261 | -74.67321 | 35889 ft | 355 kts | 271° |
| 2026-05-06 23:29 | 43.03570 | -74.74055 | 35894 ft | 355 kts | 271° |
| 2026-05-06 23:29 | 43.03855 | -74.80746 | 35898 ft | 355 kts | 270° |
| 2026-05-06 23:30 | 43.04102 | -74.87484 | 35897 ft | 355 kts | 270° |
| 2026-05-06 23:30 | 43.04355 | -74.94222 | 35899 ft | 355 kts | 270° |
| 2026-05-06 23:31 | 43.04619 | -75.00962 | 35896 ft | 355 kts | 270° |
| 2026-05-06 23:31 | 43.04887 | -75.07699 | 35934 ft | 355 kts | 270° |
| 2026-05-06 23:32 | 43.05153 | -75.14429 | 35912 ft | 354 kts | 270° |
| 2026-05-06 23:32 | 43.05411 | -75.21136 | 35928 ft | 352 kts | 270° |
| 2026-05-06 23:33 | 43.05658 | -75.27813 | 35931 ft | 351 kts | 270° |
| 2026-05-06 23:33 | 43.05847 | -75.33345 | 35933 ft | 350 kts | 270° |
| 2026-05-06 23:34 | 43.06036 | -75.39992 | 35935 ft | 350 kts | 270° |
| 2026-05-06 23:34 | 43.06210 | -75.46633 | 35946 ft | 349 kts | 270° |
| 2026-05-06 23:35 | 43.06389 | -75.53271 | 35941 ft | 349 kts | 270° |
| 2026-05-06 23:35 | 43.06568 | -75.59902 | 35935 ft | 349 kts | 270° |
| 2026-05-06 23:36 | 43.06736 | -75.66530 | 35932 ft | 349 kts | 270° |
| 2026-05-06 23:36 | 43.06901 | -75.73159 | 35929 ft | 349 kts | 270° |
| 2026-05-06 23:37 | 43.07066 | -75.79789 | 35962 ft | 349 kts | 269° |
| 2026-05-06 23:37 | 43.07236 | -75.86419 | 35944 ft | 349 kts | 269° |
| 2026-05-06 23:38 | 43.07398 | -75.93009 | 35948 ft | 349 kts | 269° |
| 2026-05-06 23:38 | 43.07550 | -75.99659 | 35951 ft | 350 kts | 269° |
| 2026-05-06 23:39 | 43.07700 | -76.06302 | 35946 ft | 350 kts | 269° |
| 2026-05-06 23:39 | 43.07850 | -76.12947 | 35946 ft | 350 kts | 269° |
| 2026-05-06 23:40 | 43.07993 | -76.19593 | 35964 ft | 350 kts | 269° |
| 2026-05-06 23:40 | 43.08132 | -76.26240 | 35961 ft | 350 kts | 269° |
| 2026-05-06 23:41 | 43.08261 | -76.32897 | 35956 ft | 350 kts | 269° |
| 2026-05-06 23:41 | 43.08345 | -76.39547 | 35952 ft | 349 kts | 263° |
| 2026-05-06 23:41 | 43.07761 | -76.42745 | 35948 ft | 350 kts | 249° |
| 2026-05-06 23:42 | 43.06651 | -76.45724 | 35949 ft | 352 kts | 246° |
| 2026-05-06 23:42 | 43.04359 | -76.51639 | 35976 ft | 352 kts | 246° |
| 2026-05-06 23:43 | 43.02047 | -76.57546 | 35926 ft | 352 kts | 246° |
| 2026-05-06 23:43 | 42.99751 | -76.63433 | 35947 ft | 350 kts | 247° |
| 2026-05-06 23:44 | 42.97464 | -76.69298 | 35951 ft | 349 kts | 246° |
| 2026-05-06 23:44 | 42.95173 | -76.75149 | 35955 ft | 349 kts | 246° |
| 2026-05-06 23:45 | 42.92890 | -76.80983 | 35958 ft | 348 kts | 247° |
| 2026-05-06 23:45 | 42.90608 | -76.86807 | 35993 ft | 348 kts | 246° |
| 2026-05-06 23:46 | 42.88323 | -76.92630 | 35968 ft | 348 kts | 246° |
| 2026-05-06 23:46 | 42.86030 | -76.98443 | 35935 ft | 348 kts | 247° |
| 2026-05-06 23:47 | 42.83738 | -77.04245 | 35939 ft | 347 kts | 247° |
| 2026-05-06 23:47 | 42.81453 | -77.10032 | 35939 ft | 347 kts | 247° |
| 2026-05-06 23:48 | 42.79166 | -77.15807 | 35938 ft | 346 kts | 247° |
| 2026-05-06 23:48 | 42.76887 | -77.21533 | 35938 ft | 346 kts | 247° |
| 2026-05-06 23:49 | 42.74594 | -77.27292 | 35971 ft | 346 kts | 247° |
| 2026-05-06 23:49 | 42.72301 | -77.33044 | 35912 ft | 346 kts | 247° |
| 2026-05-06 23:50 | 42.69994 | -77.38810 | 35946 ft | 344 kts | 247° |
| 2026-05-06 23:50 | 42.66562 | -77.47363 | 35962 ft | 343 kts | 247° |
| 2026-05-06 23:51 | 42.64293 | -77.53009 | 35959 ft | 342 kts | 247° |
| 2026-05-06 23:51 | 42.62019 | -77.58678 | 35957 ft | 342 kts | 247° |
| 2026-05-06 23:52 | 42.59742 | -77.64320 | 35953 ft | 340 kts | 247° |
| 2026-05-06 23:52 | 42.57463 | -77.69938 | 35952 ft | 340 kts | 247° |
| 2026-05-06 23:53 | 42.55189 | -77.75559 | 35925 ft | 339 kts | 247° |
| 2026-05-06 23:53 | 42.52924 | -77.81164 | 35945 ft | 339 kts | 247° |
| 2026-05-06 23:54 | 42.50653 | -77.86752 | 35967 ft | 338 kts | 247° |
| 2026-05-06 23:54 | 42.48382 | -77.92332 | 35969 ft | 338 kts | 247° |
| 2026-05-06 23:55 | 42.46110 | -77.97904 | 35998 ft | 338 kts | 247° |
| 2026-05-06 23:55 | 42.43841 | -78.03472 | 35985 ft | 338 kts | 247° |
| 2026-05-06 23:56 | 42.41560 | -78.09026 | 35960 ft | 337 kts | 247° |
| 2026-05-06 23:56 | 42.39278 | -78.14565 | 35928 ft | 336 kts | 247° |
| 2026-05-06 23:57 | 42.37011 | -78.20078 | 35950 ft | 335 kts | 248° |
| 2026-05-06 23:57 | 42.34755 | -78.25565 | 35953 ft | 334 kts | 247° |
| 2026-05-06 23:58 | 42.32517 | -78.31012 | 35950 ft | 333 kts | 247° |
| 2026-05-06 23:58 | 42.30259 | -78.36477 | 35955 ft | 333 kts | 247° |
| 2026-05-06 23:59 | 42.27994 | -78.41935 | 35952 ft | 333 kts | 247° |
| 2026-05-06 23:59 | 42.25731 | -78.47389 | 35949 ft | 333 kts | 247° |
| 2026-05-07 00:00 | 42.23467 | -78.52833 | 35950 ft | 332 kts | 247° |
| 2026-05-07 00:00 | 42.21206 | -78.58266 | 35954 ft | 332 kts | 247° |
| 2026-05-07 00:01 | 42.18942 | -78.63698 | 35963 ft | 332 kts | 247° |
| 2026-05-07 00:01 | 42.16675 | -78.69115 | 35997 ft | 332 kts | 247° |
| 2026-05-07 00:02 | 42.14406 | -78.74522 | 35991 ft | 331 kts | 247° |
| 2026-05-07 00:02 | 42.12431 | -78.80068 | 35990 ft | 326 kts | 255° |
| 2026-05-07 00:03 | 42.10948 | -78.85833 | 35993 ft | 326 kts | 254° |
| 2026-05-07 00:03 | 42.09463 | -78.91550 | 35991 ft | 325 kts | 254° |
| 2026-05-07 00:04 | 42.07968 | -78.97297 | 35949 ft | 325 kts | 255° |
| 2026-05-07 00:04 | 42.06476 | -79.03031 | 35975 ft | 324 kts | 255° |
| 2026-05-07 00:05 | 42.04983 | -79.08751 | 36007 ft | 324 kts | 254° |
| 2026-05-07 00:05 | 42.03491 | -79.14464 | 36009 ft | 323 kts | 254° |
| 2026-05-07 00:06 | 42.01998 | -79.20165 | 36005 ft | 323 kts | 254° |
| 2026-05-07 00:06 | 42.00500 | -79.25856 | 36002 ft | 323 kts | 254° |
| 2026-05-07 00:07 | 41.99002 | -79.31542 | 36001 ft | 323 kts | 254° |
| 2026-05-07 00:07 | 41.97505 | -79.37223 | 35999 ft | 322 kts | 254° |
| 2026-05-07 00:08 | 41.96004 | -79.42899 | 36028 ft | 322 kts | 253° |
| 2026-05-07 00:08 | 41.94498 | -79.48574 | 36021 ft | 323 kts | 253° |
| 2026-05-07 00:09 | 41.92987 | -79.54255 | 36016 ft | 323 kts | 253° |
| 2026-05-07 00:09 | 41.91489 | -79.59869 | 35987 ft | 321 kts | 254° |
| 2026-05-07 00:10 | 41.89990 | -79.65485 | 36008 ft | 319 kts | 254° |
| 2026-05-07 00:10 | 41.88490 | -79.71079 | 36013 ft | 318 kts | 254° |
| 2026-05-07 00:11 | 41.86986 | -79.76658 | 35973 ft | 318 kts | 254° |
| 2026-05-07 00:11 | 41.86238 | -79.79441 | 35722 ft | 316 kts | 254° |
| 2026-05-07 00:11 | 41.85495 | -79.82204 | 35391 ft | 313 kts | 254° |
| 2026-05-07 00:12 | 41.84759 | -79.84941 | 34900 ft | 311 kts | 254° |
| 2026-05-07 00:12 | 41.84027 | -79.87665 | 34384 ft | 309 kts | 254° |
| 2026-05-07 00:12 | 41.83298 | -79.90367 | 33824 ft | 308 kts | 254° |
| 2026-05-07 00:12 | 41.82569 | -79.93062 | 33182 ft | 307 kts | 254° |
| 2026-05-07 00:13 | 41.81843 | -79.95746 | 32588 ft | 306 kts | 253° |
| 2026-05-07 00:13 | 41.81119 | -79.98417 | 31996 ft | 304 kts | 253° |
| 2026-05-07 00:13 | 41.80397 | -80.01076 | 31400 ft | 303 kts | 253° |
| 2026-05-07 00:13 | 41.79680 | -80.03728 | 30867 ft | 301 kts | 253° |
| 2026-05-07 00:14 | 41.78245 | -80.09053 | 30404 ft | 307 kts | 253° |
| 2026-05-07 00:14 | 41.77522 | -80.11738 | 29921 ft | 306 kts | 253° |
| 2026-05-07 00:14 | 41.76799 | -80.14411 | 29413 ft | 305 kts | 253° |
| 2026-05-07 00:15 | 41.76080 | -80.17077 | 28984 ft | 304 kts | 253° |
| 2026-05-07 00:15 | 41.75366 | -80.19728 | 28500 ft | 302 kts | 253° |
| 2026-05-07 00:15 | 41.74654 | -80.22366 | 28044 ft | 301 kts | 253° |
| 2026-05-07 00:15 | 41.73943 | -80.25001 | 27586 ft | 300 kts | 253° |
| 2026-05-07 00:16 | 41.73230 | -80.27624 | 27133 ft | 299 kts | 252° |
| 2026-05-07 00:16 | 41.72517 | -80.30238 | 26679 ft | 299 kts | 252° |
| 2026-05-07 00:16 | 41.71805 | -80.32846 | 26225 ft | 298 kts | 252° |
| 2026-05-07 00:16 | 41.71099 | -80.35450 | 25778 ft | 297 kts | 252° |
| 2026-05-07 00:17 | 41.70399 | -80.38052 | 25326 ft | 297 kts | 253° |
| 2026-05-07 00:17 | 41.69702 | -80.40650 | 24883 ft | 296 kts | 253° |
| 2026-05-07 00:17 | 41.69003 | -80.43242 | 24435 ft | 296 kts | 252° |
| 2026-05-07 00:17 | 41.68302 | -80.45832 | 23972 ft | 296 kts | 252° |
| 2026-05-07 00:18 | 41.67609 | -80.48384 | 23532 ft | 296 kts | 252° |
| 2026-05-07 00:18 | 41.66905 | -80.50966 | 23031 ft | 295 kts | 252° |
| 2026-05-07 00:18 | 41.66202 | -80.53541 | 22673 ft | 295 kts | 252° |
| 2026-05-07 00:18 | 41.65496 | -80.56125 | 22353 ft | 297 kts | 252° |
| 2026-05-07 00:19 | 41.64784 | -80.58717 | 22014 ft | 297 kts | 252° |
| 2026-05-07 00:19 | 41.64068 | -80.61312 | 21674 ft | 297 kts | 251° |
| 2026-05-07 00:19 | 41.63354 | -80.63899 | 21337 ft | 296 kts | 251° |
| 2026-05-07 00:19 | 41.62645 | -80.66483 | 21000 ft | 296 kts | 251° |
| 2026-05-07 00:20 | 41.61932 | -80.69060 | 20674 ft | 295 kts | 251° |
| 2026-05-07 00:20 | 41.61213 | -80.71628 | 20333 ft | 295 kts | 251° |
| 2026-05-07 00:20 | 41.60497 | -80.74176 | 19984 ft | 291 kts | 251° |
| 2026-05-07 00:20 | 41.59791 | -80.76694 | 19664 ft | 289 kts | 251° |
| 2026-05-07 00:21 | 41.59088 | -80.79205 | 19344 ft | 288 kts | 250° |
| 2026-05-07 00:21 | 41.58389 | -80.81715 | 19014 ft | 288 kts | 250° |
| 2026-05-07 00:21 | 41.57688 | -80.84227 | 18680 ft | 289 kts | 250° |
| 2026-05-07 00:21 | 41.56984 | -80.86741 | 18358 ft | 289 kts | 250° |
| 2026-05-07 00:22 | 41.56277 | -80.89263 | 17993 ft | 289 kts | 250° |
| 2026-05-07 00:22 | 41.55573 | -80.91772 | 17740 ft | 290 kts | 250° |
| 2026-05-07 00:22 | 41.54864 | -80.94300 | 17342 ft | 290 kts | 250° |
| 2026-05-07 00:22 | 41.54156 | -80.96823 | 17008 ft | 290 kts | 250° |
| 2026-05-07 00:23 | 41.53449 | -80.99346 | 16676 ft | 290 kts | 250° |
| 2026-05-07 00:23 | 41.52753 | -81.01833 | 16354 ft | 290 kts | 250° |
| 2026-05-07 00:23 | 41.52037 | -81.04387 | 16016 ft | 290 kts | 250° |
| 2026-05-07 00:23 | 41.51570 | -81.06962 | 15693 ft | 291 kts | 262° |
| 2026-05-07 00:24 | 41.51447 | -81.09695 | 15359 ft | 291 kts | 264° |
| 2026-05-07 00:24 | 41.51340 | -81.12359 | 15032 ft | 291 kts | 264° |
| 2026-05-07 00:24 | 41.51228 | -81.15057 | 14700 ft | 291 kts | 264° |
| 2026-05-07 00:24 | 41.51113 | -81.17753 | 14369 ft | 291 kts | 264° |
| 2026-05-07 00:25 | 41.50996 | -81.20450 | 14036 ft | 291 kts | 264° |
| 2026-05-07 00:25 | 41.50880 | -81.23147 | 13688 ft | 291 kts | 265° |
| 2026-05-07 00:25 | 41.50765 | -81.25847 | 13339 ft | 291 kts | 265° |
| 2026-05-07 00:25 | 41.50685 | -81.27666 | 13106 ft | 291 kts | 263° |
| 2026-05-07 00:26 | 41.50356 | -81.30327 | 12786 ft | 292 kts | 258° |
| 2026-05-07 00:26 | 41.49971 | -81.32989 | 12448 ft | 292 kts | 259° |
| 2026-05-07 00:26 | 41.49587 | -81.35652 | 12116 ft | 292 kts | 259° |
| 2026-05-07 00:26 | 41.49204 | -81.38314 | 11784 ft | 292 kts | 259° |
| 2026-05-07 00:27 | 41.48822 | -81.40972 | 11453 ft | 292 kts | 259° |
| 2026-05-07 00:27 | 41.48440 | -81.43628 | 11123 ft | 291 kts | 259° |
| 2026-05-07 00:27 | 41.48059 | -81.46273 | 10682 ft | 290 kts | 260° |
| 2026-05-07 00:27 | 41.47678 | -81.48914 | 10251 ft | 289 kts | 260° |
| 2026-05-07 00:28 | 41.47312 | -81.51417 | 10118 ft | 268 kts | 260° |
| 2026-05-07 00:28 | 41.46961 | -81.53795 | 9742 ft | 257 kts | 260° |
| 2026-05-07 00:28 | 41.46620 | -81.56119 | 9140 ft | 254 kts | 260° |
| 2026-05-07 00:28 | 41.46186 | -81.58389 | 8530 ft | 252 kts | 250° |
| 2026-05-07 00:29 | 41.45327 | -81.60427 | 7935 ft | 254 kts | 235° |
| 2026-05-07 00:29 | 41.44183 | -81.62231 | 7313 ft | 255 kts | 233° |
| 2026-05-07 00:30 | 41.40732 | -81.67631 | 6009 ft | 254 kts | 232° |
| 2026-05-07 00:30 | 41.39587 | -81.69426 | 5959 ft | 254 kts | 233° |
| 2026-05-07 00:30 | 41.38448 | -81.71211 | 5746 ft | 249 kts | 232° |
| 2026-05-07 00:30 | 41.37342 | -81.72940 | 5613 ft | 241 kts | 232° |
| 2026-05-07 00:31 | 41.36272 | -81.74618 | 5456 ft | 235 kts | 233° |
| 2026-05-07 00:31 | 41.35222 | -81.76264 | 5193 ft | 233 kts | 232° |
| 2026-05-07 00:31 | 41.34176 | -81.77902 | 4911 ft | 232 kts | 232° |
| 2026-05-07 00:31 | 41.33136 | -81.79537 | 4595 ft | 231 kts | 232° |
| 2026-05-07 00:32 | 41.32096 | -81.81170 | 4276 ft | 231 kts | 232° |
| 2026-05-07 00:32 | 41.31058 | -81.82801 | 4040 ft | 229 kts | 232° |
| 2026-05-07 00:32 | 41.30018 | -81.84427 | 4008 ft | 232 kts | 232° |
| 2026-05-07 00:32 | 41.28970 | -81.86065 | 4010 ft | 233 kts | 232° |
| 2026-05-07 00:33 | 41.27921 | -81.87704 | 4014 ft | 233 kts | 232° |
| 2026-05-07 00:33 | 41.26885 | -81.89326 | 4010 ft | 234 kts | 231° |
| 2026-05-07 00:33 | 41.25817 | -81.91002 | 4017 ft | 235 kts | 231° |
| 2026-05-07 00:33 | 41.24763 | -81.92658 | 4016 ft | 235 kts | 231° |
| 2026-05-07 00:34 | 41.23709 | -81.94312 | 4016 ft | 235 kts | 231° |
| 2026-05-07 00:34 | 41.22652 | -81.95967 | 4013 ft | 235 kts | 231° |
| 2026-05-07 00:34 | 41.21600 | -81.97621 | 3954 ft | 233 kts | 234° |
| 2026-05-07 00:34 | 41.20966 | -81.99550 | 3646 ft | 229 kts | 265° |
| 2026-05-07 00:35 | 41.21222 | -82.01600 | 3307 ft | 228 kts | 297° |
| 2026-05-07 00:35 | 41.22138 | -82.03254 | 3140 ft | 221 kts | 310° |
| 2026-05-07 00:35 | 41.23161 | -82.04714 | 3033 ft | 211 kts | 320° |
| 2026-05-07 00:35 | 41.24478 | -82.05432 | 3021 ft | 208 kts | 356° |
| 2026-05-07 00:36 | 41.25894 | -82.05071 | 3031 ft | 209 kts | 18° |
| 2026-05-07 00:36 | 41.27208 | -82.04374 | 3023 ft | 197 kts | 21° |
| 2026-05-07 00:36 | 41.28449 | -82.03661 | 3018 ft | 193 kts | 21° |
| 2026-05-07 00:36 | 41.29672 | -82.02946 | 3025 ft | 192 kts | 22° |
| 2026-05-07 00:37 | 41.30747 | -82.01920 | 3025 ft | 193 kts | 48° |
| 2026-05-07 00:37 | 41.31615 | -82.00552 | 3041 ft | 193 kts | 49° |
| 2026-05-07 00:37 | 41.32481 | -81.99181 | 3016 ft | 194 kts | 49° |
| 2026-05-07 00:37 | 41.33345 | -81.97820 | 2835 ft | 190 kts | 49° |
| 2026-05-07 00:38 | 41.34177 | -81.96509 | 2609 ft | 183 kts | 49° |
| 2026-05-07 00:38 | 41.34989 | -81.95230 | 2386 ft | 178 kts | 49° |
| 2026-05-07 00:38 | 41.35781 | -81.93983 | 2119 ft | 168 kts | 49° |
| 2026-05-07 00:38 | 41.36496 | -81.92857 | 1897 ft | 153 kts | 49° |
| 2026-05-07 00:39 | 41.37171 | -81.91794 | 1679 ft | 148 kts | 49° |
| 2026-05-07 00:39 | 41.37827 | -81.90764 | 1479 ft | 145 kts | 49° |
| 2026-05-07 00:39 | 41.38469 | -81.89756 | 1269 ft | 142 kts | 50° |
| 2026-05-07 00:39 | 41.39098 | -81.88762 | 1075 ft | 139 kts | 50° |
| 2026-05-07 00:40 | 41.39715 | -81.87776 | 895 ft | 138 kts | 50° |
| 2026-05-07 00:40 | 41.40326 | -81.86806 | 765 ft | 130 kts | 50° |
| 2026-05-07 00:40 | 41.40808 | -81.86053 | 763 ft | 82 kts | 50° |
| 2026-05-07 00:40 | 41.41064 | -81.85647 | 760 ft | 32 kts | 50° |
| 2026-05-07 00:41 | 41.41108 | -81.85569 | 761 ft | 1 kts | 81° |
| 2026-05-07 00:41 | 41.41099 | -81.85534 | 761 ft | 6 kts | 109° |
| 2026-05-07 00:41 | 41.41087 | -81.85474 | 761 ft | 7 kts | 94° |
| 2026-05-07 00:41 | 41.41089 | -81.85395 | 762 ft | 10 kts | 85° |
| 2026-05-07 00:42 | 41.41130 | -81.85318 | 762 ft | 12 kts | 49° |
| 2026-05-07 00:42 | 41.41187 | -81.85229 | 765 ft | 14 kts | 50° |
| 2026-05-07 00:42 | 41.41254 | -81.85123 | 762 ft | 16 kts | 50° |
| 2026-05-07 00:42 | 41.41331 | -81.84999 | 762 ft | 18 kts | 50° |
| 2026-05-07 00:43 | 41.41405 | -81.84881 | 762 ft | 13 kts | 50° |
| 2026-05-07 00:43 | 41.41467 | -81.84783 | 761 ft | 15 kts | 62° |
| 2026-05-07 00:43 | 41.41427 | -81.84686 | 761 ft | 13 kts | 143° |
| 2026-05-07 00:43 | 41.41365 | -81.84584 | 761 ft | 16 kts | 106° |
| 2026-05-07 00:44 | 41.41308 | -81.84454 | 761 ft | 16 kts | 126° |
| 2026-05-07 00:44 | 41.41251 | -81.84375 | 761 ft | 10 kts | 170° |
| 2026-05-07 00:44 | 41.41177 | -81.84381 | 761 ft | 12 kts | 181° |
| 2026-05-07 00:44 | 41.41087 | -81.84379 | 761 ft | 14 kts | 180° |
| 2026-05-07 00:45 | 41.41046 | -81.84379 | 761 ft | 0 kts | 180° |
| 2026-05-07 00:46 | 41.41016 | -81.84378 | 761 ft | 13 kts | 178° |
| 2026-05-07 00:46 | 41.40918 | -81.84388 | 761 ft | 13 kts | 209° |
| 2026-05-07 00:46 | 41.40830 | -81.84436 | 761 ft | 14 kts | 182° |
| 2026-05-07 00:46 | 41.40730 | -81.84433 | 761 ft | 15 kts | 178° |
| 2026-05-07 00:47 | 41.40630 | -81.84416 | 761 ft | 14 kts | 137° |
| 2026-05-07 00:47 | 41.40611 | -81.84291 | 761 ft | 16 kts | 92° |
| 2026-05-07 00:47 | 41.40612 | -81.84141 | 761 ft | 16 kts | 78° |
| 2026-05-07 00:47 | 41.40684 | -81.84034 | 761 ft | 16 kts | 32° |
| 2026-05-07 00:48 | 41.40785 | -81.83951 | 761 ft | 16 kts | 31° |
| 2026-05-07 00:48 | 41.40845 | -81.83910 | 761 ft | 5 kts | 349° |
| 2026-05-07 00:48 | 41.40864 | -81.83929 | 761 ft | 1 kts | 323° |
| 2026-05-07 00:48 | 41.40874 | -81.83938 | 761 ft | 2 kts | 323° |
| 2026-05-07 00:49 | 41.40881 | -81.83946 | 761 ft | 1 kts | 323° |
| 2026-05-07 00:49 | 41.40884 | -81.83949 | 761 ft | 0 kts | 324° |
| 2026-05-07 00:49 | 41.40886 | -81.83950 | 761 ft | 0 kts | 323° |
| 2026-05-07 00:55 | 41.40886 | -81.83951 | 761 ft | 0 kts | 323° |